首页
METAR-TAF:

METAR-TAF

机场 :

纽卡斯尔机场

泰恩河畔纽卡斯尔, 英格兰

纬度: 55-02N, 经度: 001-42W, 海拔: 81米

当前天气观测

该预报发布于24分钟前的11:50 UTC
风速8节,风向北转东北
温度 10°C
湿度 93%
气压 999 hPa
能見度: 6000
散云层高于500英尺
多云层高于1100英尺
小雨

METAR: EGNT 231150Z 02008KT 6000 -RA SCT005 BKN011 10/09 Q0999

时间: 13:14 (12:14 UTC)

预报

该预报发布于1小时和12分钟前的11:02 UTC
预报有效从23日的 12点(UTC)到 24日的 12点(UTC)
风速9节,风向
能见度10公里或以上
多云层高于2500英尺
短暂存在
从 23日的 12点(UTC)到 23日的 22点(UTC)
能見度: 6000
多云层高于1200英尺
阵雨
几率 30% :
短暂存在
从 23日的 12点(UTC)到 23日的 18点(UTC)
多云层高于600英尺
几率 30% :
短暂存在
从 24日的 09点(UTC)到 24日的 12点(UTC)
能見度: 6000
多云层高于1200英尺
阵雨

TAF: EGNT 231102Z 2312/2412 35009KT 9999 BKN025 TEMPO 2312/2322 6000 SHRA BKN012 PROB30 TEMPO 2312/2318 BKN006 PROB30 TEMPO 2409/2412 6000 SHRA BKN012

超过4000个机场的气象观测和天气预报(METAR&TAF报告)。

可查询的气象台以黄色和红色小点在地图上表示。

将鼠标移到小点上方,可查看气象台名称。

然后点击查看天气观测和预报。

如需切换地图:点击带黑十字的绿色按钮放大地图;点击带横线的绿色按钮缩小地图;或者点击绿色箭头查看邻近地区的地图。


METAR-TAF: